Time;durP1;ratioP1;P1;durP2;ratioP2;P2;SDS_P1;SDS_P2;PMS_P1;PMS_P2;Temp;Humidity;BMP_temperature;BMP_pressure;BME280_temperature;BME280_humidity;BME280_pressure;Samples;Min_cycle;Max_cycle;Signal;HPM_P1;HPM_P2
2021/10/14 00:01:14;;;;;;;19.48;7.70;;;;;;;;;;5012430;28;20034;-61
2021/10/14 00:03:43;;;;;;;18.23;7.75;;;;;;;;;;5013496;28;20033;-60
2021/10/14 00:06:10;;;;;;;19.00;8.27;;;;;;;;;;5013961;28;20109;-59
2021/10/14 00:08:36;;;;;;;18.23;8.13;;;;;;;;;;5013993;28;20025;-56
2021/10/14 00:11:02;;;;;;;17.65;7.88;;;;;;;;;;5013559;28;20025;-59
2021/10/14 00:13:28;;;;;;;19.67;7.72;;;;;;;;;;5012429;28;20112;-60
2021/10/14 00:15:54;;;;;;;19.65;6.68;;;;;;;;;;5013690;28;20121;-60
2021/10/14 00:18:20;;;;;;;22.60;7.53;;;;;;;;;;5013633;28;20033;-59
2021/10/14 00:20:46;;;;;;;18.25;8.00;;;;;;;;;;5012145;28;20072;-59
2021/10/14 00:23:12;;;;;;;25.83;10.43;;;;;;;;;;5012221;28;20038;-61
2021/10/14 00:25:39;;;;;;;20.58;7.18;;;;;;;;;;5013674;28;20104;-60
2021/10/14 00:28:05;;;;;;;19.35;7.38;;;;;;;;;;5013347;28;20041;-60
2021/10/14 00:30:32;;;;;;;18.77;7.20;;;;;;;;;;5011971;28;20022;-60
2021/10/14 00:32:58;;;;;;;18.27;7.20;;;;;;;;;;5011887;28;20409;-58
2021/10/14 00:35:23;;;;;;;17.92;6.82;;;;;;;;;;5012026;28;20030;-61
2021/10/14 00:37:49;;;;;;;17.23;7.65;;;;;;;;;;5012014;28;20026;-61
2021/10/14 00:40:16;;;;;;;20.25;7.65;;;;;;;;;;5012814;28;20453;-61
2021/10/14 00:42:44;;;;;;;20.02;7.63;;;;;;;;;;5011935;28;20057;-59
2021/10/14 00:45:10;;;;;;;18.70;6.78;;;;;;;;;;5012822;28;20046;-61
2021/10/14 00:47:38;;;;;;;22.75;8.18;;;;;;;;;;5011948;28;20022;-61
2021/10/14 00:50:06;;;;;;;16.75;7.10;;;;;;;;;;5011602;28;20088;-60
2021/10/14 00:52:33;;;;;;;21.87;7.90;;;;;;;;;;5011758;28;20026;-59
2021/10/14 00:54:59;;;;;;;21.33;6.85;;;;;;;;;;5011486;28;20301;-61
2021/10/14 00:57:25;;;;;;;18.45;6.90;;;;;;;;;;5013039;28;20041;-60
2021/10/14 00:59:51;;;;;;;17.60;6.85;;;;;;;;;;5012795;28;20052;-57
2021/10/14 01:02:17;;;;;;;21.92;7.20;;;;;;;;;;5013112;28;20440;-59
2021/10/14 01:04:43;;;;;;;19.45;6.60;;;;;;;;;;5012419;28;20038;-60
2021/10/14 01:07:10;;;;;;;21.92;7.00;;;;;;;;;;5012779;28;20030;-58
2021/10/14 01:09:38;;;;;;;20.10;7.70;;;;;;;;;;5012454;28;20475;-54
2021/10/14 01:12:04;;;;;;;17.07;7.60;;;;;;;;;;5012861;28;20018;-58
2021/10/14 01:14:30;;;;;;;18.83;8.07;;;;;;;;;;5012813;28;20022;-59
2021/10/14 01:16:57;;;;;;;19.38;8.05;;;;;;;;;;5011112;28;20033;-59
2021/10/14 01:19:23;;;;;;;20.05;7.43;;;;;;;;;;5011412;28;20034;-59
2021/10/14 01:21:49;;;;;;;26.58;7.68;;;;;;;;;;5010917;28;20033;-56
2021/10/14 01:24:16;;;;;;;20.00;7.10;;;;;;;;;;5012483;28;20394;-60
2021/10/14 01:26:42;;;;;;;22.98;8.27;;;;;;;;;;5012514;28;20029;-59
2021/10/14 01:29:08;;;;;;;20.40;7.85;;;;;;;;;;5012557;28;20466;-59
2021/10/14 01:31:34;;;;;;;20.23;8.73;;;;;;;;;;5010872;28;20084;-59
2021/10/14 01:34:00;;;;;;;21.08;8.02;;;;;;;;;;5012513;28;20021;-60
2021/10/14 01:36:26;;;;;;;19.63;7.80;;;;;;;;;;5011204;28;20478;-58
2021/10/14 01:38:52;;;;;;;20.60;8.57;;;;;;;;;;5012637;28;20033;-59
2021/10/14 01:41:18;;;;;;;18.73;8.25;;;;;;;;;;5012283;28;20030;-58
2021/10/14 01:43:44;;;;;;;22.15;8.30;;;;;;;;;;5011157;28;20033;-60
2021/10/14 01:46:10;;;;;;;22.02;8.05;;;;;;;;;;5012653;28;20026;-61
2021/10/14 01:48:36;;;;;;;17.23;7.13;;;;;;;;;;5010916;28;20029;-61
2021/10/14 01:51:03;;;;;;;22.45;8.43;;;;;;;;;;5010910;28;20076;-60
2021/10/14 01:53:29;;;;;;;23.40;9.70;;;;;;;;;;5011068;28;20037;-59
2021/10/14 01:55:56;;;;;;;22.70;7.78;;;;;;;;;;5013563;28;20022;-58
2021/10/14 01:58:22;;;;;;;18.92;8.43;;;;;;;;;;5015897;28;20030;-59
2021/10/14 02:00:49;;;;;;;23.63;9.10;;;;;;;;;;5015983;28;20033;-59
2021/10/14 02:03:15;;;;;;;22.60;8.60;;;;;;;;;;5015966;28;20038;-59
2021/10/14 02:05:41;;;;;;;22.05;9.52;;;;;;;;;;5014568;28;20073;-60
2021/10/14 02:08:07;;;;;;;24.92;9.98;;;;;;;;;;5014571;28;20030;-59
2021/10/14 02:10:33;;;;;;;19.77;9.25;;;;;;;;;;5014361;28;20371;-59
2021/10/14 02:12:59;;;;;;;25.10;10.25;;;;;;;;;;5015802;28;20559;-59
2021/10/14 02:15:25;;;;;;;24.55;10.02;;;;;;;;;;5015867;28;20034;-56
2021/10/14 02:17:51;;;;;;;22.80;9.80;;;;;;;;;;5014386;28;20121;-59
2021/10/14 02:20:17;;;;;;;23.65;11.40;;;;;;;;;;5015235;28;20097;-59
2021/10/14 02:22:43;;;;;;;28.00;10.73;;;;;;;;;;5015567;28;20026;-58
2021/10/14 02:25:10;;;;;;;23.30;11.35;;;;;;;;;;5015857;28;20024;-57
2021/10/14 02:27:36;;;;;;;27.30;10.75;;;;;;;;;;5014781;28;20357;-58
2021/10/14 02:30:03;;;;;;;23.65;10.85;;;;;;;;;;5014195;28;20080;-59
2021/10/14 02:32:29;;;;;;;26.10;11.48;;;;;;;;;;5016021;28;20100;-59
2021/10/14 02:34:57;;;;;;;24.60;11.77;;;;;;;;;;5015886;28;20514;-60
2021/10/14 02:37:23;;;;;;;25.73;12.20;;;;;;;;;;5015845;28;20018;-60
2021/10/14 02:39:49;;;;;;;24.73;12.02;;;;;;;;;;5015457;28;20026;-56
2021/10/14 02:42:15;;;;;;;23.45;11.32;;;;;;;;;;5014274;28;20398;-59
2021/10/14 02:44:42;;;;;;;29.48;11.52;;;;;;;;;;5015560;28;20034;-58
2021/10/14 02:47:08;;;;;;;33.90;12.60;;;;;;;;;;5015385;28;20096;-57
2021/10/14 02:49:34;;;;;;;27.15;13.00;;;;;;;;;;5013674;28;20025;-59
2021/10/14 02:52:00;;;;;;;34.08;19.73;;;;;;;;;;5013821;28;20488;-59
2021/10/14 02:54:26;;;;;;;30.55;12.95;;;;;;;;;;5014972;28;20089;-53
2021/10/14 02:56:52;;;;;;;26.77;11.23;;;;;;;;;;5014994;28;20105;-59
2021/10/14 02:59:18;;;;;;;27.48;11.48;;;;;;;;;;5013511;28;20498;-58
2021/10/14 03:01:44;;;;;;;25.60;12.07;;;;;;;;;;5014784;28;20037;-59
2021/10/14 03:04:10;;;;;;;25.50;11.93;;;;;;;;;;5014596;28;20030;-60
2021/10/14 03:06:35;;;;;;;27.38;12.25;;;;;;;;;;5013570;28;20026;-60
2021/10/14 03:09:01;;;;;;;23.80;12.63;;;;;;;;;;5013290;28;20026;-61
2021/10/14 03:11:27;;;;;;;27.35;13.27;;;;;;;;;;5013272;28;20470;-60
2021/10/14 03:13:53;;;;;;;28.10;15.23;;;;;;;;;;5014514;28;20160;-60
2021/10/14 03:16:19;;;;;;;31.00;14.98;;;;;;;;;;5013404;28;20026;-59
2021/10/14 03:18:45;;;;;;;26.52;14.52;;;;;;;;;;5014587;28;20446;-60
2021/10/14 03:21:12;;;;;;;28.00;16.13;;;;;;;;;;5013976;28;20379;-56
2021/10/14 03:23:38;;;;;;;28.30;14.52;;;;;;;;;;5013075;28;20108;-59
2021/10/14 03:26:04;;;;;;;29.50;15.25;;;;;;;;;;5014353;28;20057;-58
2021/10/14 03:28:30;;;;;;;33.65;17.38;;;;;;;;;;5014356;28;20042;-61
2021/10/14 03:30:56;;;;;;;26.95;14.38;;;;;;;;;;5012728;28;20030;-60
2021/10/14 03:33:23;;;;;;;28.13;15.30;;;;;;;;;;5013914;28;20030;-63
2021/10/14 03:35:49;;;;;;;30.98;17.10;;;;;;;;;;5014182;28;20061;-61
2021/10/14 03:38:15;;;;;;;30.35;17.00;;;;;;;;;;5014040;28;20068;-60
2021/10/14 03:40:41;;;;;;;32.47;18.10;;;;;;;;;;5012531;28;20036;-61
2021/10/14 03:43:07;;;;;;;34.85;17.65;;;;;;;;;;5012591;28;20029;-59
2021/10/14 03:45:33;;;;;;;35.38;18.83;;;;;;;;;;5012411;28;20060;-57
2021/10/14 03:47:59;;;;;;;35.55;19.00;;;;;;;;;;5013869;28;20036;-59
2021/10/14 03:50:25;;;;;;;36.33;19.35;;;;;;;;;;5013474;28;20049;-60
2021/10/14 03:52:51;;;;;;;35.08;21.05;;;;;;;;;;5013946;28;20114;-57
2021/10/14 03:55:17;;;;;;;33.58;18.52;;;;;;;;;;5012933;28;20506;-60
2021/10/14 03:57:43;;;;;;;38.50;22.67;;;;;;;;;;5013819;28;20033;-61
2021/10/14 04:00:09;;;;;;;41.45;20.55;;;;;;;;;;5013373;28;20030;-59
2021/10/14 04:02:35;;;;;;;42.85;20.58;;;;;;;;;;5013873;28;20037;-59
2021/10/14 04:05:01;;;;;;;39.00;22.63;;;;;;;;;;5013352;28;20112;-58
2021/10/14 04:07:28;;;;;;;40.47;23.92;;;;;;;;;;5013770;28;20030;-59
2021/10/14 04:09:54;;;;;;;45.65;23.60;;;;;;;;;;5012157;28;20093;-60
2021/10/14 04:12:20;;;;;;;55.00;25.35;;;;;;;;;;5012403;28;20340;-58
2021/10/14 04:14:46;;;;;;;45.00;24.58;;;;;;;;;;5013294;28;20030;-57
2021/10/14 04:17:12;;;;;;;39.45;24.35;;;;;;;;;;5012169;28;20032;-59
2021/10/14 04:19:38;;;;;;;42.83;25.45;;;;;;;;;;5011399;28;20025;-57
2021/10/14 04:22:05;;;;;;;50.38;25.05;;;;;;;;;;5013265;28;20022;-54
2021/10/14 04:24:31;;;;;;;42.60;25.35;;;;;;;;;;5013107;28;20068;-60
2021/10/14 04:26:57;;;;;;;43.35;25.67;;;;;;;;;;5013584;28;20033;-61
2021/10/14 04:29:24;;;;;;;54.20;29.73;;;;;;;;;;5013114;28;20030;-59
2021/10/14 04:31:50;;;;;;;46.47;27.10;;;;;;;;;;5012909;28;20046;-58
2021/10/14 04:34:16;;;;;;;47.13;28.15;;;;;;;;;;5013244;28;20483;-59
2021/10/14 04:36:43;;;;;;;53.03;28.15;;;;;;;;;;5011816;28;20030;-60
2021/10/14 04:39:09;;;;;;;52.45;29.90;;;;;;;;;;5012097;28;20025;-58
2021/10/14 04:41:36;;;;;;;54.35;31.23;;;;;;;;;;5011424;28;20409;-61
2021/10/14 04:44:03;;;;;;;57.28;29.73;;;;;;;;;;5011486;28;20037;-58
2021/10/14 04:46:29;;;;;;;53.28;31.75;;;;;;;;;;5011480;28;20030;-59
2021/10/14 04:48:55;;;;;;;55.88;32.58;;;;;;;;;;5011176;28;20452;-59
2021/10/14 04:51:21;;;;;;;56.17;30.10;;;;;;;;;;5011299;28;20097;-58
2021/10/14 04:53:47;;;;;;;58.35;29.70;;;;;;;;;;5011171;28;20053;-57
2021/10/14 04:56:13;;;;;;;57.78;30.85;;;;;;;;;;5012521;28;20486;-60
2021/10/14 04:58:38;;;;;;;53.80;30.58;;;;;;;;;;5012779;28;20156;-57
2021/10/14 05:01:04;;;;;;;54.85;30.92;;;;;;;;;;5012325;28;20061;-61
2021/10/14 05:03:30;;;;;;;62.45;33.72;;;;;;;;;;5040156;22;20030;-64
2021/10/14 05:05:56;;;;;;;56.47;31.02;;;;;;;;;;5069810;28;20041;-64
2021/10/14 05:08:22;;;;;;;62.50;34.42;;;;;;;;;;5069915;28;20035;-64
2021/10/14 05:10:48;;;;;;;64.57;34.63;;;;;;;;;;5069455;28;20025;-64
2021/10/14 05:13:14;;;;;;;67.90;36.13;;;;;;;;;;5070960;28;20396;-64
2021/10/14 05:15:41;;;;;;;61.53;34.50;;;;;;;;;;5069409;28;20081;-64
2021/10/14 05:18:07;;;;;;;66.82;33.97;;;;;;;;;;5071063;28;20024;-64
2021/10/14 05:20:33;;;;;;;63.97;34.45;;;;;;;;;;5069548;28;20115;-63
2021/10/14 05:22:59;;;;;;;64.15;34.25;;;;;;;;;;5070945;28;20104;-64
2021/10/14 05:25:25;;;;;;;63.53;35.17;;;;;;;;;;5069888;28;20025;-64
2021/10/14 05:27:51;;;;;;;66.15;35.60;;;;;;;;;;5060508;28;20033;-64
2021/10/14 05:30:18;;;;;;;68.05;33.92;;;;;;;;;;5061529;28;20409;-64
2021/10/14 05:32:44;;;;;;;66.35;36.90;;;;;;;;;;5054016;28;20502;-64
2021/10/14 05:35:10;;;;;;;67.90;36.60;;;;;;;;;;5057821;28;20065;-64
2021/10/14 05:37:36;;;;;;;78.82;38.83;;;;;;;;;;5073517;28;20034;-64
2021/10/14 05:40:03;;;;;;;71.80;35.65;;;18.80;99.90;;;;;;5074601;28;20021;-64
2021/10/14 05:42:29;;;;;;;67.30;34.60;;;10.80;99.90;;;;;;5074677;28;20503;-64
2021/10/14 05:44:55;;;;;;;66.68;33.75;;;10.60;99.90;;;;;;5074499;28;20025;-64
2021/10/14 05:47:20;;;;;;;73.60;37.42;;;10.60;99.90;;;;;;5074791;28;20037;-64
2021/10/14 05:49:46;;;;;;;71.60;35.38;;;10.50;99.90;;;;;;5072711;28;20057;-64
2021/10/14 05:52:12;;;;;;;63.83;34.97;;;10.50;99.90;;;;;;5074215;28;20048;-64
2021/10/14 05:54:37;;;;;;;72.10;37.40;;;10.50;99.90;;;;;;5074517;28;20496;-64
2021/10/14 05:57:03;;;;;;;67.03;37.15;;;10.50;99.90;;;;;;5074425;28;20081;-63
2021/10/14 05:59:29;;;;;;;76.95;36.70;;;10.50;99.90;;;;;;5074337;28;20029;-61
2021/10/14 06:01:54;;;;;;;71.40;36.53;;;10.50;99.90;;;;;;5060947;28;20044;-64
2021/10/14 06:04:20;;;;;;;78.38;38.35;;;10.50;99.90;;;;;;5054298;28;20033;-64
2021/10/14 06:06:45;;;;;;;65.18;34.25;;;10.50;99.90;;;;;;5054084;28;20021;-64
2021/10/14 06:09:11;;;;;;;72.47;38.88;;;10.50;99.90;;;;;;5052674;28;20017;-62
2021/10/14 06:11:36;;;;;;;71.18;36.50;;;10.50;99.90;;;;;;5052772;28;20021;-64
2021/10/14 06:14:02;;;;;;;58.25;28.83;;;10.50;99.90;;;;;;5052768;28;20025;-64
2021/10/14 06:16:28;;;;;;;65.95;34.17;;;10.50;99.90;;;;;;5054207;28;20052;-64
2021/10/14 06:18:54;;;;;;;74.30;36.03;;;10.50;99.90;;;;;;5053797;28;20025;-64
2021/10/14 06:21:19;;;;;;;65.90;33.83;;;10.50;99.90;;;;;;5053688;28;20527;-63
2021/10/14 06:23:45;;;;;;;56.38;32.13;;;10.50;99.90;;;;;;5054227;28;20086;-64
2021/10/14 06:26:11;;;;;;;58.15;28.98;;;10.50;99.90;;;;;;5054602;28;20033;-65
2021/10/14 06:28:36;;;;;;;61.05;32.30;;;10.50;99.90;;;;;;5054466;28;20025;-65
2021/10/14 06:31:02;;;;;;;56.15;31.92;;;10.50;99.90;;;;;;5052645;28;20028;-64
2021/10/14 06:33:28;;;;;;;50.92;26.70;;;10.50;99.90;;;;;;5052905;28;20037;-63
2021/10/14 06:35:54;;;;;;;61.90;31.00;;;10.50;99.90;;;;;;5054154;28;20108;-65
2021/10/14 06:38:20;;;;;;;62.17;32.53;;;10.60;99.90;;;;;;5053034;28;20072;-65
2021/10/14 06:40:45;;;;;;;63.83;30.63;;;10.60;99.90;;;;;;5053245;28;20174;-65
2021/10/14 06:43:14;;;;;;;71.03;35.40;;;10.50;99.90;;;;;;5052597;28;20024;-65
2021/10/14 06:45:40;;;;;;;66.72;34.95;;;10.50;99.90;;;;;;5053044;28;20113;-65
2021/10/14 06:48:06;;;;;;;60.15;33.08;;;10.50;99.90;;;;;;5054401;28;20084;-64
2021/10/14 06:50:31;;;;;;;64.82;35.00;;;10.60;99.90;;;;;;5056403;28;20021;-64
2021/10/14 06:52:57;;;;;;;73.18;36.47;;;10.60;99.90;;;;;;5055721;28;20052;-65
2021/10/14 06:55:23;;;;;;;63.13;33.10;;;10.70;99.90;;;;;;5055727;28;20044;-65
2021/10/14 06:57:49;;;;;;;74.18;38.72;;;10.70;99.90;;;;;;5054279;28;20083;-64
2021/10/14 07:00:19;;;;;;;70.43;37.17;;;10.70;99.90;;;;;;5055200;28;20032;-65
2021/10/14 07:02:45;;;;;;;70.00;35.13;;;10.80;99.90;;;;;;5054433;28;20029;-63
2021/10/14 07:05:10;;;;;;;75.03;38.30;;;10.80;99.90;;;;;;5055905;28;20027;-63
2021/10/14 07:07:36;;;;;;;74.30;39.13;;;10.80;99.90;;;;;;5054980;28;20017;-65
2021/10/14 07:10:02;;;;;;;76.75;38.90;;;10.90;99.90;;;;;;5055646;28;20073;-64
2021/10/14 07:12:29;;;;;;;85.97;41.40;;;10.90;99.90;;;;;;5054370;28;20061;-62
2021/10/14 07:14:55;;;;;;;77.18;39.38;;;10.80;99.90;;;;;;5054799;28;20021;-63
2021/10/14 07:17:21;;;;;;;87.35;42.58;;;10.90;99.90;;;;;;5055129;28;20090;-65
2021/10/14 07:19:47;;;;;;;90.03;42.08;;;10.80;99.90;;;;;;5054785;28;20039;-63
2021/10/14 07:22:13;;;;;;;85.63;40.08;;;;;;;;;;5052934;28;20084;-63
2021/10/14 07:24:39;;;;;;;93.25;45.33;;;;;;;;;;5069823;28;20449;-63
2021/10/14 07:27:07;;;;;;;81.18;40.35;;;;;;;;;;5069419;28;20047;-64
2021/10/14 07:29:34;;;;;;;94.78;42.60;;;;;;;;;;5053836;28;20210;-63
2021/10/14 07:32:00;;;;;;;94.78;42.63;;;;;;;;;;5053241;28;20056;-63
2021/10/14 07:34:26;;;;;;;100.93;41.55;;;;;;;;;;5054450;28;20031;-64
2021/10/14 07:36:52;;;;;;;99.25;42.83;;;;;;;;;;5052880;28;20110;-65
2021/10/14 07:39:19;;;;;;;79.00;39.90;;;;;;;;;;5052703;28;20029;-64
2021/10/14 07:41:46;;;;;;;82.60;39.33;;;;;;;;;;5052341;28;20350;-63
2021/10/14 07:44:13;;;;;;;80.38;39.92;;;;;;;;;;5053623;28;20024;-64
2021/10/14 07:46:39;;;;;;;82.38;37.05;;;;;;;;;;5055696;28;20064;-65
2021/10/14 07:49:05;;;;;;;79.03;39.35;;;;;;;;;;5054885;28;20043;-64
2021/10/14 07:51:31;;;;;;;88.15;40.78;;;;;;;;;;5052806;28;20021;-65
2021/10/14 07:53:57;;;;;;;88.65;40.45;;;;;;;;;;5050718;28;20028;-65
2021/10/14 07:56:23;;;;;;;79.03;36.25;;;;;;;;;;5050085;28;20025;-64
2021/10/14 07:58:50;;;;;;;74.80;35.67;;;;;;;;;;5051210;28;20029;-64
2021/10/14 08:01:16;;;;;;;75.20;37.97;;;;;;;;;;5049956;28;20029;-65
2021/10/14 08:03:42;;;;;;;70.85;36.08;;;;;;;;;;5051092;28;20442;-65
2021/10/14 08:06:08;;;;;;;69.90;35.60;;;;;;;;;;5050072;28;20032;-65
2021/10/14 08:08:34;;;;;;;66.38;33.88;;;;;;;;;;5051429;28;20025;-66
2021/10/14 08:11:00;;;;;;;63.45;33.40;;;;;;;;;;5050505;28;20155;-66
2021/10/14 08:13:26;;;;;;;58.30;31.08;;;;;;;;;;5051442;28;20036;-65
2021/10/14 08:15:53;;;;;;;59.72;32.00;;;;;;;;;;5051385;28;20392;-64
2021/10/14 08:18:19;;;;;;;58.15;32.58;;;;;;;;;;5051167;28;20105;-60
2021/10/14 08:20:45;;;;;;;70.05;37.03;;;;;;;;;;5049331;28;20120;-64
2021/10/14 08:23:11;;;;;;;61.60;35.45;;;;;;;;;;5050843;28;20029;-65
2021/10/14 08:25:37;;;;;;;64.10;33.60;;;;;;;;;;5050937;28;20049;-65
2021/10/14 08:28:03;;;;;;;71.07;37.85;;;;;;;;;;5049469;28;20107;-64
2021/10/14 08:30:29;;;;;;;65.97;36.70;;;;;;;;;;5051001;28;20021;-64
2021/10/14 08:32:55;;;;;;;66.45;38.25;;;;;;;;;;5050939;28;20127;-65
2021/10/14 08:35:22;;;;;;;74.80;38.30;;;;;;;;;;5050678;28;20503;-65
2021/10/14 08:37:48;;;;;;;66.55;37.92;;;;;;;;;;5050981;28;20036;-65
2021/10/14 08:40:15;;;;;;;72.70;41.67;;;;;;;;;;5050472;28;20017;-63
2021/10/14 08:42:42;;;;;;;75.70;39.35;;;;;;;;;;5050965;28;20372;-63
2021/10/14 08:45:10;;;;;;;72.30;39.80;;;;;;;;;;5050709;28;20032;-64
2021/10/14 08:47:36;;;;;;;70.13;39.10;;;;;;;;;;5050565;28;20435;-65
2021/10/14 08:50:03;;;;;;;76.03;43.13;;;;;;;;;;5050285;28;20048;-65
2021/10/14 08:52:30;;;;;;;74.68;43.72;;;;;;;;;;5050562;28;20112;-65
2021/10/14 08:54:57;;;;;;;72.15;41.92;;;;;;;;;;5050563;28;20072;-63
2021/10/14 08:57:23;;;;;;;72.63;41.25;;;;;;;;;;5049268;28;20499;-64
2021/10/14 08:59:49;;;;;;;76.57;39.20;;;;;;;;;;5050263;28;20033;-65
2021/10/14 09:02:17;;;;;;;73.78;41.25;;;;;;;;;;5049267;28;20110;-64
2021/10/14 09:04:56;;;;;;;68.37;37.97;;;;;;;;;;5048399;28;20025;-64
2021/10/14 09:07:23;;;;;;;66.15;39.92;;;;;;;;;;5049301;28;20021;-64
2021/10/14 09:09:50;;;;;;;68.97;39.92;;;;;;;;;;5050094;28;20025;-65
2021/10/14 09:12:17;;;;;;;73.78;42.88;;;;;;;;;;5049747;28;20025;-65
2021/10/14 09:15:06;;;;;;;70.15;42.28;;;;;;;;;;5050177;28;20067;-65
2021/10/14 09:17:38;;;;;;;64.88;38.72;;;;;;;;;;5050345;28;20028;-64
2021/10/14 09:20:22;;;;;;;63.58;38.10;;;;;;;;;;5050348;28;20047;-65
2021/10/14 09:23:07;;;;;;;67.05;39.20;;;;;;;;;;5050420;28;20025;-63
2021/10/14 09:25:34;;;;;;;54.83;33.67;;;;;;;;;;5048973;28;20021;-65
2021/10/14 09:28:11;;;;;;;63.05;36.88;;;;;;;;;;5048894;28;20501;-66
2021/10/14 09:30:46;;;;;;;66.43;35.80;;;;;;;;;;5050097;28;20495;-67
2021/10/14 09:33:30;;;;;;;61.83;36.85;;;;;;;;;;5050316;28;20044;-65
2021/10/14 09:35:57;;;;;;;55.05;34.28;;;;;;;;;;5050062;28;20033;-64
2021/10/14 09:38:32;;;;;;;55.28;34.47;;;;;;;;;;5048829;28;20539;-64
2021/10/14 09:41:02;;;;;;;54.47;33.08;;;;;;;;;;5049688;28;20017;-64
2021/10/14 09:43:29;;;;;;;49.55;31.60;;;;;;;;;;5048871;28;20024;-64
2021/10/14 09:45:55;;;;;;;54.40;32.20;;;;;;;;;;5050182;28;20536;-61
2021/10/14 09:48:20;;;;;;;51.78;32.85;;;;;;;;;;5050041;28;20122;-64
2021/10/14 09:50:47;;;;;;;51.67;31.83;;;;;;;;;;5049829;28;20445;-65
2021/10/14 09:53:15;;;;;;;52.90;32.03;;;;;;;;;;5050237;28;20504;-64
2021/10/14 09:55:41;;;;;;;51.83;31.88;;;;;;;;;;5049200;28;20510;-63
2021/10/14 09:58:07;;;;;;;59.03;32.05;;;;;;;;;;5048779;28;20428;-64
2021/10/14 10:00:36;;;;;;;48.30;28.88;;;;;;;;;;5049924;28;20032;-64
2021/10/14 10:03:03;;;;;;;52.00;31.95;;;;;;;;;;5049761;28;20028;-64
2021/10/14 10:05:30;;;;;;;56.08;33.17;;;;;;;;;;5049454;28;20033;-64
2021/10/14 10:07:57;;;;;;;52.40;34.20;;;;;;;;;;5050277;28;20025;-64
2021/10/14 10:10:24;;;;;;;52.75;33.80;;;;;;;;;;5048366;28;20025;-63
2021/10/14 10:12:51;;;;;;;50.47;31.35;;;;;;;;;;5048153;28;20112;-64
2021/10/14 10:15:36;;;;;;;51.45;31.20;;;;;;;;;;5049836;28;20032;-64
2021/10/14 10:18:02;;;;;;;51.00;30.25;;;;;;;;;;5051517;28;20032;-64
2021/10/14 10:20:38;;;;;;;45.60;29.60;;;;;;;;;;5053381;28;20021;-65
2021/10/14 10:23:04;;;;;;;50.08;31.20;;;;;;;;;;5052184;28;20178;-63
2021/10/14 10:25:30;;;;;;;48.15;31.52;;;;;;;;;;5053289;28;20031;-64
2021/10/14 10:28:02;;;;;;;50.38;32.75;;;;;;;;;;5053251;28;20384;-64
2021/10/14 10:30:33;;;;;;;50.45;30.48;;;;;;;;;;5053264;28;20017;-64
2021/10/14 10:33:00;;;;;;;51.47;32.63;;;;;;;;;;4710092;28;10000440;-62
2021/10/14 10:35:41;;;;;;;47.60;30.80;;;;;;;;;;5069169;28;20864;-63
2021/10/14 10:38:14;;;;;;;43.63;29.60;;;;;;;;;;5070321;28;20055;-63
2021/10/14 10:40:41;;;;;;;50.65;31.85;;;;;;;;;;5070227;28;20028;-61
2021/10/14 10:43:08;;;;;;;49.85;30.98;;;;;;;;;;5069040;28;20039;-63
2021/10/14 10:45:43;;;;;;;54.83;32.88;;;;;;;;;;5070519;28;20024;-62
2021/10/14 10:48:10;;;;;;;53.42;32.35;;;;;;;;;;5070108;28;20040;-63
2021/10/14 10:50:47;;;;;;;55.97;31.20;;;;;;;;;;5069095;28;20400;-62
2021/10/14 10:53:17;;;;;;;44.67;28.20;;;;;;;;;;5070476;28;20040;-64
2021/10/14 10:55:43;;;;;;;54.15;32.10;;;;;;;;;;5069561;28;20624;-63
2021/10/14 10:58:11;;;;;;;49.65;31.50;;;;;;;;;;5068914;28;20031;-63
2021/10/14 11:00:38;;;;;;;48.85;31.00;;;;;;;;;;5069202;28;20642;-63
2021/10/14 11:03:15;;;;;;;50.60;28.40;;;;;;;;;;5069517;28;20115;-63
2021/10/14 11:05:49;;;;;;;44.80;26.58;;;;;;;;;;5084240;22;20056;-59
2021/10/14 11:08:18;;;;;;;52.15;31.25;;;;;;;;;;5070250;28;20434;-57
2021/10/14 11:10:45;;;;;;;46.65;27.95;;;;;;;;;;5072021;28;20017;-63
2021/10/14 11:13:11;;;;;;;43.38;28.90;;;;;;;;;;5071611;28;20029;-59
2021/10/14 11:15:37;;;;;;;47.50;31.10;;;;;;;;;;5071096;28;20035;-60
2021/10/14 11:18:04;;;;;;;43.97;26.95;;;;;;;;;;5069147;28;20562;-55
2021/10/14 11:20:30;;;;;;;42.45;25.73;;;;;;;;;;5069406;28;20025;-61
2021/10/14 11:23:06;;;;;;;44.05;27.85;;;;;;;;;;5071849;28;20078;-60
2021/10/14 11:25:32;;;;;;;41.55;28.50;;;;;;;;;;5070635;28;20075;-60
2021/10/14 11:28:03;;;;;;;45.13;27.35;;;;;;;;;;5066896;28;20377;-59
2021/10/14 11:30:42;;;;;;;39.72;25.90;;;;;;;;;;5050604;28;20459;-62
2021/10/14 11:33:27;;;;;;;43.45;27.58;;;;;;;;;;5062799;28;20051;-64
2021/10/14 11:35:58;;;;;;;42.42;26.02;;;;;;;;;;5072461;28;20027;-63
2021/10/14 11:38:24;;;;;;;39.70;26.58;;;;;;;;;;5073359;28;20024;-63
2021/10/14 11:40:50;;;;;;;44.60;27.80;;;;;;;;;;5073479;28;20040;-64
2021/10/14 11:43:16;;;;;;;38.08;24.75;;;;;;;;;;5072390;28;20037;-64
2021/10/14 11:45:44;;;;;;;44.40;28.10;;;;;;;;;;5071769;28;20446;-63
2021/10/14 11:48:29;;;;;;;41.58;29.00;;;;;;;;;;5073609;28;20095;-64
2021/10/14 11:51:01;;;;;;;41.35;25.25;;;;;;;;;;5072275;28;20130;-64
2021/10/14 11:53:27;;;;;;;39.42;26.00;;;;;;;;;;5072927;28;20032;-63
2021/10/14 11:56:00;;;;;;;41.67;28.55;;;;;;;;;;5072426;28;20028;-63
2021/10/14 11:58:26;;;;;;;40.95;26.23;;;;;;;;;;5072576;28;20036;-64
2021/10/14 12:00:54;;;;;;;38.70;25.38;;;;;;;;;;5072865;28;20131;-63
2021/10/14 12:03:20;;;;;;;38.03;24.17;;;;;;;;;;5072381;28;20029;-63
2021/10/14 12:05:46;;;;;;;40.55;24.13;;;;;;;;;;5072677;28;20029;-63
2021/10/14 12:08:12;;;;;;;38.40;25.90;;;;;;;;;;5071387;28;20358;-64
2021/10/14 12:10:46;;;;;;;38.42;24.77;;;;;;;;;;5071010;28;20567;-63
2021/10/14 12:13:14;;;;;;;38.25;24.98;;;;;;;;;;5072949;28;20063;-61
2021/10/14 12:15:41;;;;;;;37.10;24.88;;;;;;;;;;5072764;28;20043;-64
2021/10/14 12:18:07;;;;;;;38.97;25.15;;;;;;;;;;5072714;28;20060;-63
2021/10/14 12:20:33;;;;;;;42.13;26.48;;;;;;;;;;5071012;28;20024;-64
2021/10/14 12:22:59;;;;;;;41.45;27.55;;;;;;;;;;5072307;28;20020;-61
2021/10/14 12:25:39;;;;;;;47.38;28.63;;;;;;;;;;5072519;28;20017;-64
2021/10/14 12:28:09;;;;;;;40.25;23.73;;;;;;;;;;5072567;28;20045;-63
2021/10/14 12:30:39;;;;;;;42.00;25.77;;;;;;;;;;5072141;28;20027;-64
2021/10/14 12:33:11;;;;;;;39.70;26.45;;;;;;;;;;5072300;28;20024;-64
2021/10/14 12:35:38;;;;;;;43.55;28.63;;;;;;;;;;5072166;28;20020;-64
2021/10/14 12:38:08;;;;;;;47.70;30.75;;;;;;;;;;5072181;28;20020;-62
2021/10/14 12:40:42;;;;;;;48.75;31.48;;;;;;;;;;5070429;28;20025;-61
2021/10/14 12:43:14;;;;;;;49.30;31.80;;;;;;;;;;5072180;28;20036;-62
2021/10/14 12:51:18;;;;;;;46.55;30.83;;;;;;;;;;5071825;28;20384;-61
2021/10/14 12:53:56;;;;;;;40.47;26.92;;;;;;;;;;5071567;28;20031;-63
2021/10/14 12:56:33;;;;;;;45.72;30.08;;;;;;;;;;5071779;28;20504;-62
2021/10/14 12:59:03;;;;;;;42.92;29.08;;;;;;;;;;5072116;28;20392;-63
2021/10/14 13:01:29;;;;;;;40.83;27.08;;;;;;;;;;5071703;28;20388;-62
2021/10/14 13:03:55;;;;;;;38.47;25.30;;;;;;;;;;5070055;28;20056;-62
2021/10/14 13:06:22;;;;;;;43.35;28.85;;;;;;;;;;5070327;28;20051;-60
2021/10/14 13:08:48;;;;;;;39.60;26.75;;;;;;;;;;5072176;28;20020;-63
2021/10/14 13:11:16;;;;;;;37.22;26.08;;;;;;;;;;5071532;28;20122;-64
2021/10/14 13:13:43;;;;;;;35.42;24.75;;;;;;;;;;5071145;28;20059;-63
2021/10/14 13:16:10;;;;;;;36.00;24.80;;;;;;;;;;5070993;28;20056;-61
2021/10/14 13:18:36;;;;;;;42.92;27.70;;;;;;;;;;5069812;28;20173;-61
2021/10/14 13:21:03;;;;;;;40.45;23.98;;;;;;;;;;5071214;28;20163;-62
2021/10/14 13:23:29;;;;;;;38.70;24.35;;;;;;;;;;5071172;28;20029;-63
2021/10/14 13:25:56;;;;;;;42.78;26.67;;;;;;;;;;5071024;28;20433;-61
2021/10/14 13:28:25;;;;;;;41.10;25.67;;;;;;;;;;5064105;28;20477;-62
2021/10/14 13:30:51;;;;;;;38.97;25.40;;;;;;;;;;5050193;28;20157;-63
2021/10/14 13:33:20;;;;;;;42.28;26.08;;;;;;;;;;5051015;28;20395;-60
2021/10/14 13:35:47;;;;;;;36.30;25.38;;;;;;;;;;5051620;28;20543;-60
2021/10/14 13:38:17;;;;;;;36.88;23.80;;;;;;;;;;5049812;28;20083;-61
2021/10/14 13:40:51;;;;;;;39.42;24.48;;;;;;;;;;5058014;28;20100;-61
2021/10/14 13:43:20;;;;;;;37.30;25.00;;;;;;;;;;5062829;28;20370;-58
2021/10/14 13:45:46;;;;;;;36.30;25.73;;;;;;;;;;5059427;28;20464;-61
2021/10/14 13:48:12;;;;;;;33.45;24.27;;;;;;;;;;5059256;28;20461;-63
2021/10/14 13:50:42;;;;;;;34.00;22.23;;;;;;;;;;4360848;28;9999922;-62
2021/10/14 13:53:09;;;;;;;39.22;24.27;;;;;;;;;;5061174;28;20467;-59
2021/10/14 13:55:35;;;;;;;38.25;23.83;;;;;;;;;;4712736;28;9999821;-64
2021/10/14 13:58:01;;;;;;;33.75;22.70;;;;;;;;;;5066935;28;20020;-62
2021/10/14 14:00:27;;;;;;;37.67;22.90;;;;;;;;;;5071182;28;20047;-63
2021/10/14 14:02:53;;;;;;;39.28;23.63;;;;;;;;;;5070320;28;20024;-61
2021/10/14 14:05:19;;;;;;;31.38;22.35;;;;;;;;;;5071389;28;20314;-60
2021/10/14 14:07:45;;;;;;;32.10;21.10;;;;;;;;;;5071485;28;20028;-63
2021/10/14 14:10:11;;;;;;;31.42;20.52;;;;;;;;;;5071457;28;20206;-63